createdAt,value
2022-11-09T00:00:16.237Z,6.80
2022-11-09T00:05:44.162Z,6.70
2022-11-09T00:11:12.213Z,6.70
2022-11-09T00:16:40.060Z,6.60
2022-11-09T00:22:07.922Z,6.50
2022-11-09T00:27:35.739Z,6.50
2022-11-09T00:33:03.621Z,6.60
2022-11-09T00:38:31.377Z,6.50
2022-11-09T00:43:59.292Z,6.50
2022-11-09T00:49:27.265Z,6.50
2022-11-09T00:54:55.389Z,6.50
2022-11-09T01:00:24.742Z,6.50
2022-11-09T01:05:54.266Z,6.50
2022-11-09T01:11:23.644Z,6.50
2022-11-09T01:16:53.760Z,6.50
2022-11-09T01:22:21.540Z,6.50
2022-11-09T01:27:49.501Z,6.50
2022-11-09T01:33:17.560Z,6.50
2022-11-09T01:38:46.051Z,6.50
2022-11-09T01:44:21.169Z,6.50
2022-11-09T01:50:00.350Z,6.40
2022-11-09T01:55:28.316Z,6.40
2022-11-09T02:00:59.087Z,6.30
2022-11-09T02:06:30.127Z,6.30
2022-11-09T02:12:00.329Z,6.20
2022-11-09T02:17:29.545Z,6.20
2022-11-09T02:22:58.053Z,6.10
2022-11-09T02:28:27.241Z,6.10
2022-11-09T02:34:05.212Z,6.00
2022-11-09T02:39:34.754Z,6.00
2022-11-09T02:45:02.732Z,5.90
2022-11-09T02:50:30.962Z,5.90
2022-11-09T02:56:00.258Z,5.90
2022-11-09T03:01:28.891Z,5.90
2022-11-09T03:06:56.861Z,5.80
2022-11-09T03:12:31.827Z,5.80
2022-11-09T03:18:12.221Z,5.80
2022-11-09T03:23:40.576Z,5.80
2022-11-09T03:29:09.173Z,5.80
2022-11-09T03:34:37.437Z,5.80
2022-11-09T03:40:06.718Z,5.70
2022-11-09T03:45:35.276Z,5.80
2022-11-09T03:51:03.177Z,5.80
2022-11-09T03:56:31.097Z,5.80
2022-11-09T04:01:58.934Z,5.80
2022-11-09T04:07:26.748Z,5.80
2022-11-09T04:12:54.975Z,5.80
2022-11-09T04:18:22.904Z,5.80
2022-11-09T04:23:50.831Z,5.80
2022-11-09T04:29:19.822Z,5.80
2022-11-09T04:34:47.734Z,5.80
2022-11-09T04:40:15.971Z,5.80
2022-11-09T04:45:44.297Z,5.90
2022-11-09T04:51:12.274Z,5.90
2022-11-09T04:56:40.160Z,5.90
2022-11-09T05:02:07.982Z,5.90
2022-11-09T05:07:36.953Z,5.90
2022-11-09T05:13:11.536Z,5.90
2022-11-09T05:18:39.318Z,5.90
2022-11-09T05:24:07.526Z,5.90
2022-11-09T05:29:35.249Z,5.90
2022-11-09T05:35:03.012Z,5.90
2022-11-09T05:40:30.804Z,5.90
2022-11-09T05:46:02.485Z,5.90
2022-11-09T05:51:33.203Z,5.90
2022-11-09T05:57:02.170Z,5.80
2022-11-09T06:02:33.307Z,5.80
2022-11-09T06:08:11.200Z,5.80
2022-11-09T06:13:39.360Z,5.80
2022-11-09T06:19:07.148Z,5.90
2022-11-09T06:24:35.005Z,5.90
2022-11-09T06:30:02.888Z,6.10
2022-11-09T06:35:30.928Z,6.20
2022-11-09T06:41:00.115Z,6.30
2022-11-09T06:46:28.217Z,6.60
2022-11-09T06:51:56.090Z,6.90
2022-11-09T06:57:23.901Z,7.10
2022-11-09T07:02:52.564Z,7.40
2022-11-09T07:08:20.572Z,7.70
2022-11-09T07:13:53.437Z,8.00
2022-11-09T07:19:24.137Z,8.30
2022-11-09T07:24:51.921Z,8.50
2022-11-09T07:30:20.044Z,8.70
2022-11-09T07:35:47.970Z,8.90
2022-11-09T07:41:15.888Z,9.00
2022-11-09T07:46:44.727Z,9.10
2022-11-09T07:52:13.221Z,9.20
2022-11-09T07:57:40.982Z,9.30
2022-11-09T08:03:09.242Z,9.40
2022-11-09T08:08:37.201Z,9.50
2022-11-09T08:14:04.981Z,9.70
2022-11-09T08:19:32.835Z,9.90
2022-11-09T08:25:00.677Z,10.20
2022-11-09T08:30:28.623Z,10.50
2022-11-09T08:35:56.720Z,10.80
2022-11-09T08:41:24.477Z,11.00
2022-11-09T08:46:52.444Z,11.30
2022-11-09T08:52:20.398Z,11.60
2022-11-09T08:57:48.755Z,11.80
2022-11-09T09:03:17.321Z,11.90
2022-11-09T09:08:45.020Z,12.10
2022-11-09T09:14:12.887Z,12.20
2022-11-09T09:19:40.710Z,12.30
2022-11-09T09:25:09.345Z,12.40
2022-11-09T09:30:37.107Z,12.60
2022-11-09T09:36:05.383Z,12.70
2022-11-09T09:41:56.486Z,12.90
2022-11-09T09:47:41.045Z,13.10
2022-11-09T09:53:48.210Z,13.30
2022-11-09T09:59:42.928Z,13.40
2022-11-09T10:05:16.499Z,13.60
2022-11-09T10:11:17.465Z,13.90
2022-11-09T10:16:57.744Z,14.10
2022-11-09T10:23:00.906Z,14.30
2022-11-09T10:28:47.577Z,14.50
2022-11-09T10:34:40.535Z,14.60
2022-11-09T10:40:37.665Z,14.70
2022-11-09T10:46:24.759Z,14.90
2022-11-09T10:52:46.164Z,15.00
2022-11-09T10:58:39.593Z,15.10
2022-11-09T11:04:28.005Z,15.50
2022-11-09T11:10:17.404Z,16.00
2022-11-09T11:16:27.309Z,16.50
2022-11-09T11:22:19.110Z,16.80
2022-11-09T11:28:23.760Z,17.10
2022-11-09T11:34:31.991Z,17.40
2022-11-09T11:40:33.745Z,17.60
2022-11-09T11:46:53.743Z,17.70
2022-11-09T11:53:30.084Z,17.60
2022-11-09T11:59:32.059Z,17.70
2022-11-09T12:05:59.329Z,17.80
2022-11-09T12:12:19.319Z,18.00
2022-11-09T12:18:35.868Z,18.10
2022-11-09T12:25:00.233Z,18.30
2022-11-09T12:31:19.289Z,18.40
2022-11-09T12:37:19.254Z,18.40
2022-11-09T12:43:35.108Z,18.50
2022-11-09T12:49:43.332Z,18.30
2022-11-09T12:55:44.778Z,18.20
2022-11-09T13:01:34.404Z,18.20
2022-11-09T13:07:39.979Z,18.30
2022-11-09T13:13:26.336Z,18.40
2022-11-09T13:19:35.329Z,18.40
2022-11-09T13:25:44.399Z,18.30
2022-11-09T13:32:13.941Z,18.20
2022-11-09T13:38:00.047Z,18.40
2022-11-09T13:43:46.166Z,19.00
2022-11-09T13:49:48.887Z,19.40
2022-11-09T13:55:42.920Z,19.10
2022-11-09T14:01:37.921Z,18.80
2022-11-09T14:07:35.989Z,18.80
2022-11-09T14:13:30.528Z,19.20
2022-11-09T14:19:44.179Z,19.40
2022-11-09T14:25:35.717Z,19.00
2022-11-09T14:31:29.418Z,18.60
2022-11-09T14:37:17.290Z,18.30
2022-11-09T14:43:43.164Z,17.80
2022-11-09T14:49:29.985Z,17.60
2022-11-09T14:55:19.423Z,17.20
2022-11-09T15:01:29.072Z,16.80
2022-11-09T15:07:21.932Z,16.50
2022-11-09T15:13:08.435Z,16.20
2022-11-09T15:18:55.622Z,16.00
2022-11-09T15:24:48.307Z,15.80
2022-11-09T15:30:55.137Z,15.50
2022-11-09T15:36:45.000Z,15.40
2022-11-09T15:42:32.440Z,15.20
2022-11-09T15:48:18.966Z,15.00
2022-11-09T15:54:05.847Z,14.80
2022-11-09T15:59:52.189Z,14.70
2022-11-09T16:05:39.026Z,14.60
2022-11-09T16:11:25.673Z,14.50
2022-11-09T16:17:11.933Z,14.40
2022-11-09T16:22:58.526Z,14.30
2022-11-09T16:28:45.112Z,14.10
2022-11-09T16:34:31.540Z,14.00
2022-11-09T16:40:17.863Z,13.90
2022-11-09T16:46:05.286Z,13.80
2022-11-09T16:51:51.548Z,13.70
2022-11-09T16:57:37.669Z,13.70
2022-11-09T17:03:23.918Z,13.60
2022-11-09T17:09:10.141Z,13.50
2022-11-09T17:14:57.628Z,13.40
2022-11-09T17:20:46.438Z,13.40
2022-11-09T17:26:33.340Z,13.30
2022-11-09T17:32:24.907Z,13.20
2022-11-09T17:38:11.344Z,13.10
2022-11-09T17:44:02.045Z,13.00
2022-11-09T17:49:48.706Z,13.00
2022-11-09T17:55:38.519Z,12.90
2022-11-09T18:01:25.260Z,12.90
2022-11-09T18:07:11.837Z,12.90
2022-11-09T18:12:57.991Z,13.00
2022-11-09T18:18:44.709Z,13.00
2022-11-09T18:24:33.033Z,13.10
2022-11-09T18:30:19.844Z,13.00
2022-11-09T18:36:15.657Z,13.00
2022-11-09T18:42:02.394Z,12.90
2022-11-09T18:47:49.935Z,12.80
2022-11-09T18:53:44.988Z,12.70
2022-11-09T18:59:31.748Z,12.70
2022-11-09T19:05:17.932Z,12.60
2022-11-09T19:11:07.328Z,12.60
2022-11-09T19:16:54.198Z,12.50
2022-11-09T19:22:40.807Z,12.40
2022-11-09T19:28:30.482Z,12.30
2022-11-09T19:34:20.994Z,12.30
2022-11-09T19:40:08.410Z,12.20
2022-11-09T19:45:54.931Z,12.10
2022-11-09T19:51:41.304Z,12.00
2022-11-09T19:57:28.802Z,12.00
2022-11-09T20:03:14.924Z,11.90
2022-11-09T20:09:01.281Z,11.90
2022-11-09T20:14:47.596Z,11.80
2022-11-09T20:20:33.833Z,11.80
2022-11-09T20:26:20.198Z,11.70
2022-11-09T20:32:10.548Z,11.70
2022-11-09T20:37:58.485Z,11.60
2022-11-09T20:43:44.668Z,11.50
2022-11-09T20:49:30.798Z,11.50
2022-11-09T20:55:17.009Z,11.40
2022-11-09T21:01:16.331Z,11.30
2022-11-09T21:07:03.020Z,11.30
2022-11-09T21:12:53.449Z,11.20
2022-11-09T21:18:41.906Z,11.10
2022-11-09T21:24:47.037Z,11.10
2022-11-09T21:30:34.262Z,11.00
2022-11-09T21:36:21.305Z,11.00
2022-11-09T21:42:08.017Z,11.00
2022-11-09T21:47:55.482Z,11.00
2022-11-09T21:53:41.889Z,10.90
2022-11-09T21:59:28.108Z,10.90
2022-11-09T22:05:16.588Z,10.90
2022-11-09T22:11:12.659Z,10.90
2022-11-09T22:16:59.367Z,10.90
2022-11-09T22:22:45.821Z,10.90
2022-11-09T22:28:33.474Z,10.90
2022-11-09T22:34:20.041Z,10.80
2022-11-09T22:40:07.496Z,10.80
2022-11-09T22:45:53.571Z,10.80
2022-11-09T22:51:39.792Z,10.80
2022-11-09T22:57:25.859Z,10.70
2022-11-09T23:03:12.116Z,10.70
2022-11-09T23:08:58.220Z,10.70
2022-11-09T23:15:03.466Z,10.70
2022-11-09T23:20:49.923Z,10.60
2022-11-09T23:26:36.204Z,10.60
2022-11-09T23:32:22.161Z,10.60
2022-11-09T23:38:08.815Z,10.60
2022-11-09T23:43:56.233Z,10.60
2022-11-09T23:49:42.819Z,10.50
2022-11-09T23:55:30.395Z,10.50
